sensor_id;sensor_type;location;lat;lon;timestamp;temperature;humidity
15777;DHT22;7989;51.198;6.676;2024-02-15T00:01:25;12.60;99.90
15777;DHT22;7989;51.198;6.676;2024-02-15T00:03:54;12.60;99.90
15777;DHT22;7989;51.198;6.676;2024-02-15T00:06:20;12.60;99.90
15777;DHT22;7989;51.198;6.676;2024-02-15T00:08:48;12.60;99.90
15777;DHT22;7989;51.198;6.676;2024-02-15T00:11:15;12.60;99.90
15777;DHT22;7989;51.198;6.676;2024-02-15T00:13:42;12.60;99.90
15777;DHT22;7989;51.198;6.676;2024-02-15T00:16:13;12.60;99.90
15777;DHT22;7989;51.198;6.676;2024-02-15T00:18:40;12.60;99.90
15777;DHT22;7989;51.198;6.676;2024-02-15T00:21:08;12.50;99.90
15777;DHT22;7989;51.198;6.676;2024-02-15T00:23:36;12.60;99.90
15777;DHT22;7989;51.198;6.676;2024-02-15T00:26:03;12.60;99.90
15777;DHT22;7989;51.198;6.676;2024-02-15T00:28:30;12.60;99.90
15777;DHT22;7989;51.198;6.676;2024-02-15T00:30:59;12.50;99.90
15777;DHT22;7989;51.198;6.676;2024-02-15T00:33:26;12.50;99.90
15777;DHT22;7989;51.198;6.676;2024-02-15T00:35:53;12.50;99.90
15777;DHT22;7989;51.198;6.676;2024-02-15T00:38:22;12.50;99.90
15777;DHT22;7989;51.198;6.676;2024-02-15T00:40:49;12.50;99.90
15777;DHT22;7989;51.198;6.676;2024-02-15T00:43:16;12.50;99.90
15777;DHT22;7989;51.198;6.676;2024-02-15T00:45:42;12.50;99.90
15777;DHT22;7989;51.198;6.676;2024-02-15T00:48:09;12.50;99.90
15777;DHT22;7989;51.198;6.676;2024-02-15T00:50:36;12.50;99.90
15777;DHT22;7989;51.198;6.676;2024-02-15T00:53:03;12.50;99.90
15777;DHT22;7989;51.198;6.676;2024-02-15T00:55:32;12.50;99.90
15777;DHT22;7989;51.198;6.676;2024-02-15T00:57:59;12.50;99.90
15777;DHT22;7989;51.198;6.676;2024-02-15T01:00:26;12.50;99.90
15777;DHT22;7989;51.198;6.676;2024-02-15T01:02:52;12.50;99.90
15777;DHT22;7989;51.198;6.676;2024-02-15T01:05:19;12.50;99.90
15777;DHT22;7989;51.198;6.676;2024-02-15T01:07:47;12.60;99.90
15777;DHT22;7989;51.198;6.676;2024-02-15T01:10:15;12.60;99.90
15777;DHT22;7989;51.198;6.676;2024-02-15T01:12:44;12.60;99.90
15777;DHT22;7989;51.198;6.676;2024-02-15T01:15:10;12.60;99.90
15777;DHT22;7989;51.198;6.676;2024-02-15T01:17:37;12.60;99.90
15777;DHT22;7989;51.198;6.676;2024-02-15T01:20:05;12.70;99.90
15777;DHT22;7989;51.198;6.676;2024-02-15T01:22:33;12.70;99.90
15777;DHT22;7989;51.198;6.676;2024-02-15T01:25:00;12.70;99.90
15777;DHT22;7989;51.198;6.676;2024-02-15T01:27:27;12.70;99.90
15777;DHT22;7989;51.198;6.676;2024-02-15T01:29:56;12.70;99.90
15777;DHT22;7989;51.198;6.676;2024-02-15T01:32:23;12.70;99.90
15777;DHT22;7989;51.198;6.676;2024-02-15T01:34:51;12.70;99.90
15777;DHT22;7989;51.198;6.676;2024-02-15T01:37:19;12.70;99.90
15777;DHT22;7989;51.198;6.676;2024-02-15T01:39:47;12.70;99.90
15777;DHT22;7989;51.198;6.676;2024-02-15T01:42:13;12.70;99.90
15777;DHT22;7989;51.198;6.676;2024-02-15T01:44:40;12.70;99.90
15777;DHT22;7989;51.198;6.676;2024-02-15T01:47:11;12.70;99.90
15777;DHT22;7989;51.198;6.676;2024-02-15T01:49:38;12.70;99.90
15777;DHT22;7989;51.198;6.676;2024-02-15T01:52:07;12.70;99.90
15777;DHT22;7989;51.198;6.676;2024-02-15T01:54:35;12.70;99.90
15777;DHT22;7989;51.198;6.676;2024-02-15T01:57:04;12.70;99.90
15777;DHT22;7989;51.198;6.676;2024-02-15T01:59:32;12.70;99.90
15777;DHT22;7989;51.198;6.676;2024-02-15T02:01:59;12.70;99.90
15777;DHT22;7989;51.198;6.676;2024-02-15T02:04:27;12.70;99.90
15777;DHT22;7989;51.198;6.676;2024-02-15T02:06:54;12.70;99.90
15777;DHT22;7989;51.198;6.676;2024-02-15T02:09:24;12.70;99.90
15777;DHT22;7989;51.198;6.676;2024-02-15T02:11:51;12.70;99.90
15777;DHT22;7989;51.198;6.676;2024-02-15T02:14:18;12.80;99.90
15777;DHT22;7989;51.198;6.676;2024-02-15T02:16:46;12.80;99.90
15777;DHT22;7989;51.198;6.676;2024-02-15T02:19:13;12.80;99.90
15777;DHT22;7989;51.198;6.676;2024-02-15T02:21:41;12.80;99.90
15777;DHT22;7989;51.198;6.676;2024-02-15T02:24:12;12.80;99.90
15777;DHT22;7989;51.198;6.676;2024-02-15T02:26:40;12.80;99.90
15777;DHT22;7989;51.198;6.676;2024-02-15T02:29:08;12.80;99.90
15777;DHT22;7989;51.198;6.676;2024-02-15T02:31:36;12.80;99.90
15777;DHT22;7989;51.198;6.676;2024-02-15T02:34:03;12.80;99.90
15777;DHT22;7989;51.198;6.676;2024-02-15T02:36:31;12.80;99.90
15777;DHT22;7989;51.198;6.676;2024-02-15T02:38:58;12.80;99.90
15777;DHT22;7989;51.198;6.676;2024-02-15T02:41:26;12.70;99.90
15777;DHT22;7989;51.198;6.676;2024-02-15T02:43:55;12.60;99.90
15777;DHT22;7989;51.198;6.676;2024-02-15T02:46:22;12.60;99.90
15777;DHT22;7989;51.198;6.676;2024-02-15T02:48:48;12.50;99.90
15777;DHT22;7989;51.198;6.676;2024-02-15T02:51:15;12.60;99.90
15777;DHT22;7989;51.198;6.676;2024-02-15T02:53:42;12.60;99.90
15777;DHT22;7989;51.198;6.676;2024-02-15T02:56:09;12.60;99.90
15777;DHT22;7989;51.198;6.676;2024-02-15T02:58:36;12.50;99.90
15777;DHT22;7989;51.198;6.676;2024-02-15T03:01:04;12.50;99.90
15777;DHT22;7989;51.198;6.676;2024-02-15T03:03:31;12.50;99.90
15777;DHT22;7989;51.198;6.676;2024-02-15T03:05:58;12.50;99.90
15777;DHT22;7989;51.198;6.676;2024-02-15T03:08:27;12.50;99.90
15777;DHT22;7989;51.198;6.676;2024-02-15T03:10:53;12.40;99.90
15777;DHT22;7989;51.198;6.676;2024-02-15T03:13:20;12.40;99.90
15777;DHT22;7989;51.198;6.676;2024-02-15T03:15:47;12.40;99.90
15777;DHT22;7989;51.198;6.676;2024-02-15T03:18:16;12.40;99.90
15777;DHT22;7989;51.198;6.676;2024-02-15T03:20:43;12.40;99.90
15777;DHT22;7989;51.198;6.676;2024-02-15T03:23:10;12.50;99.90
15777;DHT22;7989;51.198;6.676;2024-02-15T03:25:37;12.50;99.90
15777;DHT22;7989;51.198;6.676;2024-02-15T03:28:04;12.50;99.90
15777;DHT22;7989;51.198;6.676;2024-02-15T03:30:31;12.50;99.90
15777;DHT22;7989;51.198;6.676;2024-02-15T03:32:59;12.40;99.90
15777;DHT22;7989;51.198;6.676;2024-02-15T03:35:28;12.50;99.90
15777;DHT22;7989;51.198;6.676;2024-02-15T03:37:57;12.50;99.90
15777;DHT22;7989;51.198;6.676;2024-02-15T03:40:24;12.40;99.90
15777;DHT22;7989;51.198;6.676;2024-02-15T03:42:52;12.50;99.90
15777;DHT22;7989;51.198;6.676;2024-02-15T03:45:19;12.50;99.90
15777;DHT22;7989;51.198;6.676;2024-02-15T03:47:46;12.40;99.90
15777;DHT22;7989;51.198;6.676;2024-02-15T03:50:12;12.40;99.90
15777;DHT22;7989;51.198;6.676;2024-02-15T03:52:41;12.40;99.90
15777;DHT22;7989;51.198;6.676;2024-02-15T03:55:09;12.30;99.90
15777;DHT22;7989;51.198;6.676;2024-02-15T03:57:38;12.30;99.90
15777;DHT22;7989;51.198;6.676;2024-02-15T04:00:06;12.30;99.90
15777;DHT22;7989;51.198;6.676;2024-02-15T04:02:36;12.30;99.90
15777;DHT22;7989;51.198;6.676;2024-02-15T04:05:06;12.20;99.90
15777;DHT22;7989;51.198;6.676;2024-02-15T04:07:34;12.20;99.90
15777;DHT22;7989;51.198;6.676;2024-02-15T04:10:04;12.20;99.90
15777;DHT22;7989;51.198;6.676;2024-02-15T04:12:31;12.20;99.90
15777;DHT22;7989;51.198;6.676;2024-02-15T04:14:58;12.20;99.90
15777;DHT22;7989;51.198;6.676;2024-02-15T04:17:30;12.20;99.90
15777;DHT22;7989;51.198;6.676;2024-02-15T04:19:58;12.20;99.90
15777;DHT22;7989;51.198;6.676;2024-02-15T04:22:25;12.20;99.90
15777;DHT22;7989;51.198;6.676;2024-02-15T04:24:52;12.10;99.90
15777;DHT22;7989;51.198;6.676;2024-02-15T04:27:21;12.10;99.90
15777;DHT22;7989;51.198;6.676;2024-02-15T04:29:48;12.10;99.90
15777;DHT22;7989;51.198;6.676;2024-02-15T04:32:15;12.20;99.90
15777;DHT22;7989;51.198;6.676;2024-02-15T04:34:44;12.10;99.90
15777;DHT22;7989;51.198;6.676;2024-02-15T04:37:12;12.20;99.90
15777;DHT22;7989;51.198;6.676;2024-02-15T04:39:40;12.20;99.90
15777;DHT22;7989;51.198;6.676;2024-02-15T04:42:06;12.30;99.90
15777;DHT22;7989;51.198;6.676;2024-02-15T04:44:38;12.30;99.90
15777;DHT22;7989;51.198;6.676;2024-02-15T04:47:05;12.30;99.90
15777;DHT22;7989;51.198;6.676;2024-02-15T04:49:32;12.30;99.90
15777;DHT22;7989;51.198;6.676;2024-02-15T04:51:59;12.20;99.90
15777;DHT22;7989;51.198;6.676;2024-02-15T04:54:27;12.20;99.90
15777;DHT22;7989;51.198;6.676;2024-02-15T04:56:55;12.20;99.90
15777;DHT22;7989;51.198;6.676;2024-02-15T04:59:22;12.20;99.90
15777;DHT22;7989;51.198;6.676;2024-02-15T05:01:53;12.20;99.90
15777;DHT22;7989;51.198;6.676;2024-02-15T05:04:20;12.20;99.90
15777;DHT22;7989;51.198;6.676;2024-02-15T05:06:46;12.20;99.90
15777;DHT22;7989;51.198;6.676;2024-02-15T05:09:13;12.10;99.90
15777;DHT22;7989;51.198;6.676;2024-02-15T05:11:43;12.10;99.90
15777;DHT22;7989;51.198;6.676;2024-02-15T05:14:12;12.10;99.90
15777;DHT22;7989;51.198;6.676;2024-02-15T05:16:44;12.10;99.90
15777;DHT22;7989;51.198;6.676;2024-02-15T05:19:14;12.10;99.90
15777;DHT22;7989;51.198;6.676;2024-02-15T05:21:41;12.10;99.90
15777;DHT22;7989;51.198;6.676;2024-02-15T05:24:11;12.10;99.90
15777;DHT22;7989;51.198;6.676;2024-02-15T05:26:39;12.10;99.90
15777;DHT22;7989;51.198;6.676;2024-02-15T05:29:08;12.10;99.90
15777;DHT22;7989;51.198;6.676;2024-02-15T05:31:35;12.10;99.90
15777;DHT22;7989;51.198;6.676;2024-02-15T05:34:05;12.10;99.90
15777;DHT22;7989;51.198;6.676;2024-02-15T05:36:34;12.10;99.90
15777;DHT22;7989;51.198;6.676;2024-02-15T05:39:01;12.10;99.90
15777;DHT22;7989;51.198;6.676;2024-02-15T05:41:28;12.10;99.90
15777;DHT22;7989;51.198;6.676;2024-02-15T05:43:56;12.10;99.90
15777;DHT22;7989;51.198;6.676;2024-02-15T05:46:23;12.10;99.90
15777;DHT22;7989;51.198;6.676;2024-02-15T05:48:51;12.10;99.90
15777;DHT22;7989;51.198;6.676;2024-02-15T05:51:18;12.10;99.90
15777;DHT22;7989;51.198;6.676;2024-02-15T05:53:46;12.10;99.90
15777;DHT22;7989;51.198;6.676;2024-02-15T05:56:15;12.10;99.90
15777;DHT22;7989;51.198;6.676;2024-02-15T05:58:42;12.10;99.90
15777;DHT22;7989;51.198;6.676;2024-02-15T06:01:09;12.10;99.90
15777;DHT22;7989;51.198;6.676;2024-02-15T06:03:37;12.00;99.90
15777;DHT22;7989;51.198;6.676;2024-02-15T06:06:06;12.00;99.90
15777;DHT22;7989;51.198;6.676;2024-02-15T06:08:33;11.90;99.90
15777;DHT22;7989;51.198;6.676;2024-02-15T06:11:02;11.80;99.90
15777;DHT22;7989;51.198;6.676;2024-02-15T06:13:31;11.90;99.90
15777;DHT22;7989;51.198;6.676;2024-02-15T06:15:58;11.90;99.90
15777;DHT22;7989;51.198;6.676;2024-02-15T06:18:27;11.90;99.90
15777;DHT22;7989;51.198;6.676;2024-02-15T06:20:55;11.90;99.90
15777;DHT22;7989;51.198;6.676;2024-02-15T06:23:24;11.90;99.90
15777;DHT22;7989;51.198;6.676;2024-02-15T06:25:52;11.90;99.90
15777;DHT22;7989;51.198;6.676;2024-02-15T06:28:21;11.90;99.90
15777;DHT22;7989;51.198;6.676;2024-02-15T06:31:01;11.80;99.90
15777;DHT22;7989;51.198;6.676;2024-02-15T06:33:46;11.80;99.90
15777;DHT22;7989;51.198;6.676;2024-02-15T06:36:30;11.80;99.90
15777;DHT22;7989;51.198;6.676;2024-02-15T06:39:23;11.80;99.90
15777;DHT22;7989;51.198;6.676;2024-02-15T06:42:06;11.80;99.90
15777;DHT22;7989;51.198;6.676;2024-02-15T06:44:35;11.80;99.90
15777;DHT22;7989;51.198;6.676;2024-02-15T06:47:02;11.80;99.90
15777;DHT22;7989;51.198;6.676;2024-02-15T06:49:28;11.80;99.90
15777;DHT22;7989;51.198;6.676;2024-02-15T06:51:55;11.80;99.90
15777;DHT22;7989;51.198;6.676;2024-02-15T06:54:22;11.80;99.90
15777;DHT22;7989;51.198;6.676;2024-02-15T06:56:49;11.90;99.90
15777;DHT22;7989;51.198;6.676;2024-02-15T06:59:17;11.90;99.90
15777;DHT22;7989;51.198;6.676;2024-02-15T07:01:46;11.90;99.90
15777;DHT22;7989;51.198;6.676;2024-02-15T07:04:13;11.90;99.90
15777;DHT22;7989;51.198;6.676;2024-02-15T07:06:40;11.90;99.90
15777;DHT22;7989;51.198;6.676;2024-02-15T07:09:10;12.00;99.90
15777;DHT22;7989;51.198;6.676;2024-02-15T07:11:37;12.00;99.90
15777;DHT22;7989;51.198;6.676;2024-02-15T07:14:04;12.00;99.90
15777;DHT22;7989;51.198;6.676;2024-02-15T07:16:32;12.00;99.90
15777;DHT22;7989;51.198;6.676;2024-02-15T07:19:01;12.00;99.90
15777;DHT22;7989;51.198;6.676;2024-02-15T07:21:28;12.00;99.90
15777;DHT22;7989;51.198;6.676;2024-02-15T07:23:57;11.90;99.90
15777;DHT22;7989;51.198;6.676;2024-02-15T07:26:25;11.90;99.90
15777;DHT22;7989;51.198;6.676;2024-02-15T07:28:52;11.90;99.90
15777;DHT22;7989;51.198;6.676;2024-02-15T07:31:19;11.90;99.90
15777;DHT22;7989;51.198;6.676;2024-02-15T07:33:47;11.90;99.90
15777;DHT22;7989;51.198;6.676;2024-02-15T07:36:19;11.90;99.90
15777;DHT22;7989;51.198;6.676;2024-02-15T07:38:47;11.90;99.90
15777;DHT22;7989;51.198;6.676;2024-02-15T07:41:14;11.90;99.90
15777;DHT22;7989;51.198;6.676;2024-02-15T07:43:41;11.90;99.90
15777;DHT22;7989;51.198;6.676;2024-02-15T07:46:11;11.90;99.90
15777;DHT22;7989;51.198;6.676;2024-02-15T07:48:39;11.80;99.90
15777;DHT22;7989;51.198;6.676;2024-02-15T07:51:11;11.70;99.90
15777;DHT22;7989;51.198;6.676;2024-02-15T07:53:39;11.70;99.90
15777;DHT22;7989;51.198;6.676;2024-02-15T07:56:06;11.70;99.90
15777;DHT22;7989;51.198;6.676;2024-02-15T07:58:33;11.60;99.90
15777;DHT22;7989;51.198;6.676;2024-02-15T08:01:00;11.70;99.90
15777;DHT22;7989;51.198;6.676;2024-02-15T08:03:27;11.70;99.90
15777;DHT22;7989;51.198;6.676;2024-02-15T08:05:55;11.70;99.90
15777;DHT22;7989;51.198;6.676;2024-02-15T08:08:22;11.70;99.90
15777;DHT22;7989;51.198;6.676;2024-02-15T08:10:50;11.70;99.90
15777;DHT22;7989;51.198;6.676;2024-02-15T08:13:17;11.80;99.90
15777;DHT22;7989;51.198;6.676;2024-02-15T08:15:48;11.80;99.90
15777;DHT22;7989;51.198;6.676;2024-02-15T08:18:18;11.90;99.90
15777;DHT22;7989;51.198;6.676;2024-02-15T08:20:45;11.90;99.90
15777;DHT22;7989;51.198;6.676;2024-02-15T08:23:12;11.90;99.90
15777;DHT22;7989;51.198;6.676;2024-02-15T08:25:39;11.90;99.90
15777;DHT22;7989;51.198;6.676;2024-02-15T08:28:08;12.00;99.90
15777;DHT22;7989;51.198;6.676;2024-02-15T08:30:36;12.00;99.90
15777;DHT22;7989;51.198;6.676;2024-02-15T08:33:03;12.10;99.90
15777;DHT22;7989;51.198;6.676;2024-02-15T08:35:30;12.10;99.90
15777;DHT22;7989;51.198;6.676;2024-02-15T08:37:57;12.10;99.90
15777;DHT22;7989;51.198;6.676;2024-02-15T08:40:24;12.20;99.90
15777;DHT22;7989;51.198;6.676;2024-02-15T08:42:51;12.20;99.90
15777;DHT22;7989;51.198;6.676;2024-02-15T08:45:19;12.20;99.90
15777;DHT22;7989;51.198;6.676;2024-02-15T08:47:46;12.20;99.90
15777;DHT22;7989;51.198;6.676;2024-02-15T08:50:15;12.20;99.90
15777;DHT22;7989;51.198;6.676;2024-02-15T08:52:42;12.20;99.90
15777;DHT22;7989;51.198;6.676;2024-02-15T08:55:10;12.20;99.90
15777;DHT22;7989;51.198;6.676;2024-02-15T08:57:40;12.30;99.90
15777;DHT22;7989;51.198;6.676;2024-02-15T09:00:10;12.30;99.90
15777;DHT22;7989;51.198;6.676;2024-02-15T09:02:41;12.40;99.90
15777;DHT22;7989;51.198;6.676;2024-02-15T09:05:08;12.40;99.90
15777;DHT22;7989;51.198;6.676;2024-02-15T09:07:35;12.40;99.90
15777;DHT22;7989;51.198;6.676;2024-02-15T09:10:03;12.50;99.90
15777;DHT22;7989;51.198;6.676;2024-02-15T09:12:32;12.40;99.90
15777;DHT22;7989;51.198;6.676;2024-02-15T09:14:59;12.50;99.90
15777;DHT22;7989;51.198;6.676;2024-02-15T09:17:26;12.60;99.90
15777;DHT22;7989;51.198;6.676;2024-02-15T09:19:54;12.70;99.90
15777;DHT22;7989;51.198;6.676;2024-02-15T09:22:21;12.80;99.90
15777;DHT22;7989;51.198;6.676;2024-02-15T09:24:48;12.90;99.90
15777;DHT22;7989;51.198;6.676;2024-02-15T09:27:15;12.90;99.90
15777;DHT22;7989;51.198;6.676;2024-02-15T09:29:42;12.90;99.90
15777;DHT22;7989;51.198;6.676;2024-02-15T09:32:09;13.00;99.90
15777;DHT22;7989;51.198;6.676;2024-02-15T09:34:36;13.00;99.90
15777;DHT22;7989;51.198;6.676;2024-02-15T09:37:04;13.10;99.90
15777;DHT22;7989;51.198;6.676;2024-02-15T09:39:31;13.20;99.90
15777;DHT22;7989;51.198;6.676;2024-02-15T09:41:58;13.30;99.90
15777;DHT22;7989;51.198;6.676;2024-02-15T09:44:25;13.40;99.90
15777;DHT22;7989;51.198;6.676;2024-02-15T09:47:02;13.40;99.90
15777;DHT22;7989;51.198;6.676;2024-02-15T09:49:32;13.40;99.90
15777;DHT22;7989;51.198;6.676;2024-02-15T09:52:04;13.50;99.90
15777;DHT22;7989;51.198;6.676;2024-02-15T09:54:33;13.60;99.90
15777;DHT22;7989;51.198;6.676;2024-02-15T09:57:01;13.70;99.90
15777;DHT22;7989;51.198;6.676;2024-02-15T09:59:29;13.70;99.90
15777;DHT22;7989;51.198;6.676;2024-02-15T10:01:58;13.80;99.90
15777;DHT22;7989;51.198;6.676;2024-02-15T10:04:25;13.70;99.90
15777;DHT22;7989;51.198;6.676;2024-02-15T10:06:52;13.70;99.90
15777;DHT22;7989;51.198;6.676;2024-02-15T10:09:28;13.60;99.90
15777;DHT22;7989;51.198;6.676;2024-02-15T10:11:55;13.50;99.90
15777;DHT22;7989;51.198;6.676;2024-02-15T10:14:23;13.50;99.90
15777;DHT22;7989;51.198;6.676;2024-02-15T10:16:51;13.50;99.90
15777;DHT22;7989;51.198;6.676;2024-02-15T10:19:19;13.50;99.90
15777;DHT22;7989;51.198;6.676;2024-02-15T10:21:51;13.50;99.90
15777;DHT22;7989;51.198;6.676;2024-02-15T10:24:20;13.50;99.90
15777;DHT22;7989;51.198;6.676;2024-02-15T10:26:50;13.60;99.90
15777;DHT22;7989;51.198;6.676;2024-02-15T10:29:18;13.60;99.90
15777;DHT22;7989;51.198;6.676;2024-02-15T10:31:53;13.70;99.90
15777;DHT22;7989;51.198;6.676;2024-02-15T10:34:20;13.70;99.90
15777;DHT22;7989;51.198;6.676;2024-02-15T10:36:47;13.80;99.90
15777;DHT22;7989;51.198;6.676;2024-02-15T10:39:16;13.90;99.90
15777;DHT22;7989;51.198;6.676;2024-02-15T10:41:46;13.90;99.90
15777;DHT22;7989;51.198;6.676;2024-02-15T10:44:18;14.00;99.90
15777;DHT22;7989;51.198;6.676;2024-02-15T10:46:46;14.00;99.90
15777;DHT22;7989;51.198;6.676;2024-02-15T10:49:19;14.10;99.90
15777;DHT22;7989;51.198;6.676;2024-02-15T10:51:51;14.10;99.90
15777;DHT22;7989;51.198;6.676;2024-02-15T10:54:30;14.20;99.90
15777;DHT22;7989;51.198;6.676;2024-02-15T10:57:04;14.20;99.90
15777;DHT22;7989;51.198;6.676;2024-02-15T10:59:35;14.20;99.90
15777;DHT22;7989;51.198;6.676;2024-02-15T11:02:20;14.20;99.90
15777;DHT22;7989;51.198;6.676;2024-02-15T11:04:52;14.30;99.90
15777;DHT22;7989;51.198;6.676;2024-02-15T11:07:23;14.60;99.90
15777;DHT22;7989;51.198;6.676;2024-02-15T11:09:52;14.70;99.90
15777;DHT22;7989;51.198;6.676;2024-02-15T11:12:19;14.90;99.90
15777;DHT22;7989;51.198;6.676;2024-02-15T11:14:47;15.10;99.90
15777;DHT22;7989;51.198;6.676;2024-02-15T11:17:45;15.30;99.90
15777;DHT22;7989;51.198;6.676;2024-02-15T11:20:47;15.50;99.90
15777;DHT22;7989;51.198;6.676;2024-02-15T11:23:27;15.70;99.90
15777;DHT22;7989;51.198;6.676;2024-02-15T11:25:54;15.80;99.90
15777;DHT22;7989;51.198;6.676;2024-02-15T11:28:43;15.90;99.90
15777;DHT22;7989;51.198;6.676;2024-02-15T11:34:43;16.50;99.90
15777;DHT22;7989;51.198;6.676;2024-02-15T11:40:11;17.40;99.90
15777;DHT22;7989;51.198;6.676;2024-02-15T11:42:38;18.00;99.90
15777;DHT22;7989;51.198;6.676;2024-02-15T11:45:06;18.40;99.90
15777;DHT22;7989;51.198;6.676;2024-02-15T11:47:37;18.50;99.90
15777;DHT22;7989;51.198;6.676;2024-02-15T11:50:08;18.80;99.90
15777;DHT22;7989;51.198;6.676;2024-02-15T11:52:38;18.80;99.90
15777;DHT22;7989;51.198;6.676;2024-02-15T11:55:07;19.00;99.90
15777;DHT22;7989;51.198;6.676;2024-02-15T11:57:36;18.90;99.90
15777;DHT22;7989;51.198;6.676;2024-02-15T12:00:20;18.50;99.90
15777;DHT22;7989;51.198;6.676;2024-02-15T12:03:01;18.20;99.90
15777;DHT22;7989;51.198;6.676;2024-02-15T12:05:49;18.00;99.90
15777;DHT22;7989;51.198;6.676;2024-02-15T12:08:33;18.10;99.90
15777;DHT22;7989;51.198;6.676;2024-02-15T12:11:18;18.20;99.90
15777;DHT22;7989;51.198;6.676;2024-02-15T12:14:02;18.20;99.90
15777;DHT22;7989;51.198;6.676;2024-02-15T12:16:46;18.30;99.90
15777;DHT22;7989;51.198;6.676;2024-02-15T12:19:31;18.20;99.90
15777;DHT22;7989;51.198;6.676;2024-02-15T12:22:00;18.20;99.90
15777;DHT22;7989;51.198;6.676;2024-02-15T12:24:27;18.40;99.90
15777;DHT22;7989;51.198;6.676;2024-02-15T12:27:00;18.60;99.90
15777;DHT22;7989;51.198;6.676;2024-02-15T12:29:28;18.80;99.90
15777;DHT22;7989;51.198;6.676;2024-02-15T12:31:55;18.80;99.90
15777;DHT22;7989;51.198;6.676;2024-02-15T12:34:22;18.70;99.90
15777;DHT22;7989;51.198;6.676;2024-02-15T12:36:49;18.40;99.90
15777;DHT22;7989;51.198;6.676;2024-02-15T12:39:25;18.20;99.90
15777;DHT22;7989;51.198;6.676;2024-02-15T12:41:53;18.20;99.90
15777;DHT22;7989;51.198;6.676;2024-02-15T12:44:20;18.30;99.90
15777;DHT22;7989;51.198;6.676;2024-02-15T12:46:53;18.30;99.90
15777;DHT22;7989;51.198;6.676;2024-02-15T12:49:29;18.20;99.90
15777;DHT22;7989;51.198;6.676;2024-02-15T12:55:08;18.10;99.90
15777;DHT22;7989;51.198;6.676;2024-02-15T12:57:36;18.00;99.90
15777;DHT22;7989;51.198;6.676;2024-02-15T13:00:07;17.90;99.90
15777;DHT22;7989;51.198;6.676;2024-02-15T13:02:43;17.90;99.90
15777;DHT22;7989;51.198;6.676;2024-02-15T13:05:10;17.80;99.90
15777;DHT22;7989;51.198;6.676;2024-02-15T13:07:38;17.70;99.90
15777;DHT22;7989;51.198;6.676;2024-02-15T13:10:07;17.60;99.90
15777;DHT22;7989;51.198;6.676;2024-02-15T13:12:35;17.60;99.90
15777;DHT22;7989;51.198;6.676;2024-02-15T13:15:03;17.60;99.90
15777;DHT22;7989;51.198;6.676;2024-02-15T13:17:31;17.70;99.90
15777;DHT22;7989;51.198;6.676;2024-02-15T13:19:59;17.70;99.90
15777;DHT22;7989;51.198;6.676;2024-02-15T13:22:30;17.50;99.90
15777;DHT22;7989;51.198;6.676;2024-02-15T13:24:57;17.50;99.90
15777;DHT22;7989;51.198;6.676;2024-02-15T13:27:26;17.40;99.90
15777;DHT22;7989;51.198;6.676;2024-02-15T13:29:52;17.50;99.90
15777;DHT22;7989;51.198;6.676;2024-02-15T13:32:20;17.50;99.90
15777;DHT22;7989;51.198;6.676;2024-02-15T13:34:47;17.70;99.90
15777;DHT22;7989;51.198;6.676;2024-02-15T13:37:18;17.80;99.90
15777;DHT22;7989;51.198;6.676;2024-02-15T13:39:47;17.90;99.90
15777;DHT22;7989;51.198;6.676;2024-02-15T13:42:14;18.00;99.90
15777;DHT22;7989;51.198;6.676;2024-02-15T13:44:44;18.00;99.90
15777;DHT22;7989;51.198;6.676;2024-02-15T13:47:11;18.00;99.90
15777;DHT22;7989;51.198;6.676;2024-02-15T13:49:38;18.00;99.90
15777;DHT22;7989;51.198;6.676;2024-02-15T13:52:06;17.90;99.90
15777;DHT22;7989;51.198;6.676;2024-02-15T13:54:33;17.90;99.90
15777;DHT22;7989;51.198;6.676;2024-02-15T13:57:00;17.90;99.90
15777;DHT22;7989;51.198;6.676;2024-02-15T13:59:28;18.00;99.90
15777;DHT22;7989;51.198;6.676;2024-02-15T14:01:56;18.00;99.90
15777;DHT22;7989;51.198;6.676;2024-02-15T14:04:23;18.00;99.90
15777;DHT22;7989;51.198;6.676;2024-02-15T14:06:53;17.80;99.90
15777;DHT22;7989;51.198;6.676;2024-02-15T14:09:21;17.70;99.90
15777;DHT22;7989;51.198;6.676;2024-02-15T14:11:52;17.60;99.90
15777;DHT22;7989;51.198;6.676;2024-02-15T14:14:19;17.50;99.90
15777;DHT22;7989;51.198;6.676;2024-02-15T14:16:45;17.40;99.90
15777;DHT22;7989;51.198;6.676;2024-02-15T14:19:14;17.50;99.90
15777;DHT22;7989;51.198;6.676;2024-02-15T14:21:41;17.50;99.90
15777;DHT22;7989;51.198;6.676;2024-02-15T14:24:10;17.60;99.90
15777;DHT22;7989;51.198;6.676;2024-02-15T14:26:38;17.60;99.90
15777;DHT22;7989;51.198;6.676;2024-02-15T14:29:05;18.00;99.90
15777;DHT22;7989;51.198;6.676;2024-02-15T14:31:32;18.00;99.90
15777;DHT22;7989;51.198;6.676;2024-02-15T14:34:18;18.20;99.90
15777;DHT22;7989;51.198;6.676;2024-02-15T14:36:46;18.90;99.90
15777;DHT22;7989;51.198;6.676;2024-02-15T14:39:14;19.00;99.90
15777;DHT22;7989;51.198;6.676;2024-02-15T14:41:41;18.80;99.90
15777;DHT22;7989;51.198;6.676;2024-02-15T14:44:09;18.30;99.90
15777;DHT22;7989;51.198;6.676;2024-02-15T14:46:38;18.00;99.90
15777;DHT22;7989;51.198;6.676;2024-02-15T14:49:06;17.70;99.90
15777;DHT22;7989;51.198;6.676;2024-02-15T14:51:35;17.70;99.90
15777;DHT22;7989;51.198;6.676;2024-02-15T14:54:04;17.50;99.90
15777;DHT22;7989;51.198;6.676;2024-02-15T14:56:31;17.40;99.90
15777;DHT22;7989;51.198;6.676;2024-02-15T14:58:58;17.40;99.90
15777;DHT22;7989;51.198;6.676;2024-02-15T15:01:26;17.20;99.90
15777;DHT22;7989;51.198;6.676;2024-02-15T15:03:55;17.10;99.90
15777;DHT22;7989;51.198;6.676;2024-02-15T15:06:24;17.00;99.90
15777;DHT22;7989;51.198;6.676;2024-02-15T15:09:09;16.90;99.90
15777;DHT22;7989;51.198;6.676;2024-02-15T15:11:54;16.80;99.90
15777;DHT22;7989;51.198;6.676;2024-02-15T15:14:39;16.70;99.90
15777;DHT22;7989;51.198;6.676;2024-02-15T15:17:07;16.60;99.90
15777;DHT22;7989;51.198;6.676;2024-02-15T15:19:36;16.60;99.90
15777;DHT22;7989;51.198;6.676;2024-02-15T15:22:03;16.50;99.90
15777;DHT22;7989;51.198;6.676;2024-02-15T15:24:34;16.50;99.90
15777;DHT22;7989;51.198;6.676;2024-02-15T15:27:02;16.40;99.90
15777;DHT22;7989;51.198;6.676;2024-02-15T15:29:30;16.40;99.90
15777;DHT22;7989;51.198;6.676;2024-02-15T15:31:57;16.40;99.90
15777;DHT22;7989;51.198;6.676;2024-02-15T15:34:24;16.40;99.90
15777;DHT22;7989;51.198;6.676;2024-02-15T15:36:51;16.40;99.90
15777;DHT22;7989;51.198;6.676;2024-02-15T15:39:20;16.30;99.90
15777;DHT22;7989;51.198;6.676;2024-02-15T15:41:51;16.30;99.90
15777;DHT22;7989;51.198;6.676;2024-02-15T15:44:20;16.30;99.90
15777;DHT22;7989;51.198;6.676;2024-02-15T15:46:50;16.30;99.90
15777;DHT22;7989;51.198;6.676;2024-02-15T15:49:17;16.20;99.90
15777;DHT22;7989;51.198;6.676;2024-02-15T15:51:44;16.20;99.90
15777;DHT22;7989;51.198;6.676;2024-02-15T15:54:12;16.20;99.90
15777;DHT22;7989;51.198;6.676;2024-02-15T15:56:39;16.20;99.90
15777;DHT22;7989;51.198;6.676;2024-02-15T15:59:07;16.50;99.90
15777;DHT22;7989;51.198;6.676;2024-02-15T16:01:34;16.80;99.90
15777;DHT22;7989;51.198;6.676;2024-02-15T16:04:02;16.90;99.90
15777;DHT22;7989;51.198;6.676;2024-02-15T16:06:30;17.10;99.90